PWSweather.com
Personal Weather Stations
Station Observations
SWHWX01
St AppolinardFR 38160

St AppolinardFR 38160

Lat: 45.191, Lon: 5.268

Elevation: 1460

Station Type: Davis Vantage Pro2 Plus

www.sweetwebhome.com/?show=wxindex

High Low Average
Temperature 41.1°F5.1°F 29.8°F-1.2°F 35.6°F2.0°F
Dew Point 36.9°F2.7°F 26.4°F-3.1°F 30.4°F-0.9°F
Winds 9.0 mph WSW14.5 mph WSW Calm Calm 2.8 mph 4.5 mph
Wind Gusts 13.0 mph20.9 mph -- 4.1 mph6.6 mph
Humidity 90% 69% 81%
Pressure 30.17 in1021.70 in 29.93 in1013.50 in -
Precipitation 0.05 in1.30 in - -
Hour Temp Dew Point Humidity Winds Wind Gusts Pressure Precip Precip Rate Daily Precip Total
12:00 AM 33.2°F0.7°C 28.6°F-1.9°C 83% 2.5 mph N4.0 kmh N 3.0 mph4.8 kmh 30.15 in1021.0 mb - 0.00 in0.0 mm 0.00 in0.0 mm
12:30 AM 33.8°F1.0°C 28.9°F-1.7°C 82% 2.2 mph N3.5 kmh N 3.0 mph4.8 kmh 30.16 in1021.3 mb - 0.00 in0.0 mm 0.00 in0.0 mm
01:00 AM 32.6°F0.3°C 27.4°F-2.6°C 81% Calm Calm -- 30.16 in1021.3 mb - 0.00 in0.0 mm 0.00 in0.0 mm
01:30 AM 32.3°F0.2°C 28.0°F-2.2°C 84% Calm Calm -- 30.17 in1021.7 mb - 0.00 in0.0 mm 0.00 in0.0 mm
02:00 AM 32.8°F0.4°C 28.5°F-1.9°C 84% Calm Calm -- 30.17 in1021.7 mb - 0.00 in0.0 mm 0.00 in0.0 mm
02:30 AM 31.4°F-0.3°C 27.4°F-2.6°C 85% 0.6 mph N1.0 kmh N 2.0 mph3.2 kmh 30.17 in1021.7 mb - 0.00 in0.0 mm 0.00 in0.0 mm
03:00 AM 31.3°F-0.4°C 27.6°F-2.4°C 86% 0.1 mph N0.2 kmh N -- 30.17 in1021.7 mb - 0.00 in0.0 mm 0.00 in0.0 mm
03:30 AM 33.6°F0.9°C 29.0°F-1.7°C 83% Calm Calm -- 30.16 in1021.3 mb - 0.00 in0.0 mm 0.00 in0.0 mm
04:00 AM 33.3°F0.7°C 28.4°F-2.0°C 82% Calm Calm -- 30.16 in1021.3 mb - 0.00 in0.0 mm 0.00 in0.0 mm
04:30 AM 33.1°F0.6°C 27.9°F-2.3°C 81% 1.9 mph N3.1 kmh N 3.0 mph4.8 kmh 30.15 in1021.0 mb - 0.00 in0.0 mm 0.00 in0.0 mm
05:00 AM 32.6°F0.3°C 27.1°F-2.7°C 80% 2.1 mph N3.4 kmh N 3.0 mph4.8 kmh 30.16 in1021.3 mb - 0.00 in0.0 mm 0.00 in0.0 mm
05:30 AM 32.2°F0.1°C 26.4°F-3.1°C 79% 3.2 mph N5.1 kmh N 5.0 mph8.0 kmh 30.16 in1021.3 mb - 0.00 in0.0 mm 0.00 in0.0 mm
06:00 AM 31.8°F-0.1°C 27.2°F-2.7°C 83% 0.6 mph N1.0 kmh N 2.0 mph3.2 kmh 30.16 in1021.3 mb - 0.00 in0.0 mm 0.00 in0.0 mm
06:30 AM 32.4°F0.2°C 27.2°F-2.7°C 81% Calm Calm -- 30.16 in1021.3 mb - 0.00 in0.0 mm 0.00 in0.0 mm
07:00 AM 30.8°F-0.7°C 26.5°F-3.1°C 84% Calm Calm -- 30.15 in1021.0 mb - 0.00 in0.0 mm 0.00 in0.0 mm
07:30 AM 29.8°F-1.2°C 26.4°F-3.1°C 87% 2.7 mph N4.3 kmh N 4.0 mph6.4 kmh 30.15 in1021.0 mb - 0.00 in0.0 mm 0.00 in0.0 mm
08:00 AM 31.6°F-0.2°C 26.8°F-2.9°C 82% Calm Calm -- 30.14 in1020.7 mb - 0.00 in0.0 mm 0.00 in0.0 mm
08:30 AM 31.9°F-0.1°C 26.7°F-2.9°C 81% Calm Calm 1.0 mph1.6 kmh 30.15 in1021.0 mb - 0.00 in0.0 mm 0.00 in0.0 mm
09:00 AM 33.3°F0.7°C 27.8°F-2.3°C 80% Calm Calm -- 30.15 in1021.0 mb - 0.00 in0.0 mm 0.00 in0.0 mm
09:30 AM 35.1°F1.7°C 28.9°F-1.7°C 78% Calm Calm -- 30.15 in1021.0 mb - 0.00 in0.0 mm 0.00 in0.0 mm
10:00 AM 34.5°F1.4°C 28.0°F-2.2°C 77% 0.1 mph N0.2 kmh N 1.0 mph1.6 kmh 30.15 in1021.0 mb - 0.00 in0.0 mm 0.00 in0.0 mm
10:30 AM 34.4°F1.3°C 28.2°F-2.1°C 78% 2.2 mph N3.5 kmh N 4.0 mph6.4 kmh 30.15 in1021.0 mb - 0.00 in0.0 mm 0.00 in0.0 mm
11:00 AM 34.5°F1.4°C 28.7°F-1.8°C 79% 1.5 mph N2.4 kmh N 4.0 mph6.4 kmh 30.14 in1020.7 mb - 0.00 in0.0 mm 0.00 in0.0 mm
11:30 AM 35.5°F1.9°C 28.3°F-2.1°C 75% 5.3 mph NW8.5 kmh NW 6.0 mph9.7 kmh 30.14 in1020.7 mb - 0.00 in0.0 mm 0.00 in0.0 mm
12:00 PM 37.3°F2.9°C 30.4°F-0.9°C 76% 4.4 mph NW7.1 kmh NW 6.0 mph9.7 kmh 30.11 in1019.6 mb - 0.00 in0.0 mm 0.00 in0.0 mm
12:30 PM 38.3°F3.5°C 30.1°F-1.1°C 72% 1.7 mph NW2.7 kmh NW 4.0 mph6.4 kmh 30.10 in1019.3 mb - 0.00 in0.0 mm 0.00 in0.0 mm
01:00 PM 39.5°F4.2°C 30.2°F-1.0°C 69% 5.0 mph NW8.0 kmh NW 7.0 mph11.3 kmh 30.08 in1018.6 mb - 0.00 in0.0 mm 0.00 in0.0 mm
01:30 PM 39.9°F4.4°C 30.6°F-0.8°C 69% 5.9 mph W9.5 kmh W 8.0 mph12.9 kmh 30.07 in1018.3 mb - 0.00 in0.0 mm 0.00 in0.0 mm
02:00 PM 38.4°F3.6°C 29.5°F-1.4°C 70% 4.4 mph WSW7.1 kmh WSW 6.0 mph9.7 kmh 30.07 in1018.3 mb - 0.00 in0.0 mm 0.00 in0.0 mm
02:30 PM 37.6°F3.1°C 30.1°F-1.1°C 74% 4.4 mph WSW7.1 kmh WSW 6.0 mph9.7 kmh 30.05 in1017.6 mb - 0.00 in0.0 mm 0.00 in0.0 mm
03:00 PM 37.6°F3.1°C 31.0°F-0.6°C 77% 3.4 mph WSW5.5 kmh WSW 6.0 mph9.7 kmh 30.05 in1017.6 mb - 0.00 in0.0 mm 0.00 in0.0 mm
03:30 PM 37.5°F3.1°C 31.9°F-0.1°C 80% 9.0 mph WSW14.5 kmh WSW 13.0 mph20.9 kmh 30.06 in1017.9 mb - 0.00 in0.0 mm 0.00 in0.0 mm
04:00 PM 37.3°F2.9°C 32.3°F0.2°C 82% 3.7 mph WSW6.0 kmh WSW 4.0 mph6.4 kmh 30.06 in1017.9 mb - 0.00 in0.0 mm 0.00 in0.0 mm
04:30 PM 36.8°F2.7°C 33.0°F0.6°C 86% 2.9 mph WSW4.7 kmh WSW 4.0 mph6.4 kmh 30.05 in1017.6 mb - 0.00 in0.0 mm 0.00 in0.0 mm
05:00 PM 37.3°F2.9°C 32.9°F0.5°C 84% 4.3 mph WSW6.9 kmh WSW 6.0 mph9.7 kmh 30.04 in1017.3 mb - 0.00 in0.0 mm 0.00 in0.0 mm
05:30 PM 37.9°F3.3°C 32.9°F0.5°C 82% 4.5 mph WSW7.2 kmh WSW 7.0 mph11.3 kmh 30.03 in1016.9 mb - 0.00 in0.0 mm 0.00 in0.0 mm
06:00 PM 37.7°F3.2°C 32.7°F0.4°C 82% 4.4 mph WSW7.1 kmh WSW 6.0 mph9.7 kmh 30.02 in1016.6 mb - 0.00 in0.0 mm 0.00 in0.0 mm
06:30 PM 37.5°F3.1°C 32.8°F0.4°C 83% 1.2 mph WSW1.9 kmh WSW 3.0 mph4.8 kmh 30.00 in1015.9 mb - 0.00 in0.0 mm 0.00 in0.0 mm
07:00 PM 38.3°F3.5°C 33.2°F0.7°C 82% 6.2 mph WSW10.0 kmh WSW 9.0 mph14.5 kmh 30.00 in1015.9 mb - 0.00 in0.0 mm 0.00 in0.0 mm
07:30 PM 38.1°F3.4°C 33.4°F0.8°C 83% 3.1 mph SW5.0 kmh SW 4.0 mph6.4 kmh 30.00 in1015.9 mb - 0.01 in0.3 mm 0.01 in0.3 mm
08:00 PM 37.1°F2.8°C 33.9°F1.1°C 88% 3.4 mph SW5.5 kmh SW 4.0 mph6.4 kmh 29.97 in1014.9 mb - 0.01 in0.3 mm 0.02 in0.5 mm
08:30 PM 37.3°F2.9°C 34.6°F1.4°C 90% 2.4 mph SW3.9 kmh SW 5.0 mph8.0 kmh 29.96 in1014.6 mb - 0.03 in0.8 mm 0.05 in1.3 mm
09:00 PM 38.0°F3.3°C 35.3°F1.8°C 90% 3.9 mph SW6.3 kmh SW 5.0 mph8.0 kmh 29.95 in1014.2 mb - 0.00 in0.0 mm 0.05 in1.3 mm
09:30 PM 38.2°F3.4°C 35.5°F1.9°C 90% 6.7 mph SW10.8 kmh SW 9.0 mph14.5 kmh 29.95 in1014.2 mb - 0.00 in0.0 mm 0.05 in1.3 mm
10:00 PM 39.1°F3.9°C 36.1°F2.3°C 89% 5.4 mph SW8.7 kmh SW 9.0 mph14.5 kmh 29.94 in1013.9 mb - 0.00 in0.0 mm 0.05 in1.3 mm
10:30 PM 40.1°F4.5°C 36.5°F2.5°C 87% 4.7 mph SW7.6 kmh SW 7.0 mph11.3 kmh 29.94 in1013.9 mb - 0.00 in0.0 mm 0.05 in1.3 mm
11:00 PM 40.8°F4.9°C 36.9°F2.7°C 86% 7.5 mph WSW12.1 kmh WSW 11.0 mph17.7 kmh 29.93 in1013.5 mb - 0.00 in0.0 mm 0.05 in1.3 mm
11:30 PM 41.1°F5.1°C 36.9°F2.7°C 85% 7.0 mph WSW11.3 kmh WSW 8.0 mph12.9 kmh 29.93 in1013.5 mb - 0.00 in0.0 mm 0.05 in1.3 mm